createdAt,value
2023-01-20T00:01:43.137Z,12.00
2023-01-20T00:04:10.013Z,10.83
2023-01-20T00:06:36.595Z,10.60
2023-01-20T00:09:04.908Z,10.13
2023-01-20T00:11:31.846Z,9.87
2023-01-20T00:14:01.229Z,10.40
2023-01-20T00:16:31.547Z,11.57
2023-01-20T00:18:58.342Z,11.03
2023-01-20T00:21:25.026Z,10.97
2023-01-20T00:23:51.856Z,11.03
2023-01-20T00:26:20.530Z,13.63
2023-01-20T00:28:47.811Z,12.90
2023-01-20T00:31:21.331Z,11.40
2023-01-20T00:33:49.632Z,11.07
2023-01-20T00:36:18.001Z,10.80
2023-01-20T00:38:45.104Z,10.93
2023-01-20T00:41:12.181Z,11.80
2023-01-20T00:43:39.430Z,11.27
2023-01-20T00:46:06.769Z,10.63
2023-01-20T00:48:34.139Z,11.50
2023-01-20T00:51:01.263Z,11.97
2023-01-20T00:53:28.109Z,11.17
2023-01-20T00:55:54.895Z,10.73
2023-01-20T00:58:21.687Z,9.70
2023-01-20T01:00:49.996Z,11.00
2023-01-20T01:03:17.036Z,11.47
2023-01-20T01:05:44.697Z,8.60
2023-01-20T01:08:11.807Z,10.57
2023-01-20T01:10:38.525Z,10.07
2023-01-20T01:13:05.916Z,9.20
2023-01-20T01:15:32.817Z,8.20
2023-01-20T01:18:00.232Z,9.03
2023-01-20T01:20:28.627Z,8.57
2023-01-20T01:22:55.925Z,7.53
2023-01-20T01:25:22.912Z,8.57
2023-01-20T01:27:49.524Z,8.30
2023-01-20T01:30:16.237Z,8.50
2023-01-20T01:32:42.838Z,8.43
2023-01-20T01:35:09.555Z,10.23
2023-01-20T01:37:36.191Z,8.17
2023-01-20T01:40:02.947Z,8.53
2023-01-20T01:42:29.808Z,8.30
2023-01-20T01:45:12.314Z,9.30
2023-01-20T01:47:48.104Z,7.90
2023-01-20T01:50:29.875Z,10.53
2023-01-20T01:52:57.143Z,7.20
2023-01-20T01:55:29.303Z,7.90
2023-01-20T01:57:58.559Z,8.37
2023-01-20T02:00:25.337Z,8.00
2023-01-20T02:02:52.601Z,8.13
2023-01-20T02:05:20.396Z,8.70
2023-01-20T02:07:48.035Z,7.77
2023-01-20T02:10:15.779Z,7.13
2023-01-20T02:12:47.334Z,8.07
2023-01-20T02:15:16.624Z,9.60
2023-01-20T02:18:21.150Z,9.10
2023-01-20T02:20:50.654Z,8.33
2023-01-20T02:23:36.718Z,7.73
2023-01-20T02:26:28.792Z,8.90
2023-01-20T02:29:04.537Z,7.50
2023-01-20T02:32:08.049Z,10.23
2023-01-20T02:34:49.901Z,10.47
2023-01-20T02:37:24.959Z,9.37
2023-01-20T02:40:12.663Z,7.73
2023-01-20T02:42:46.919Z,6.73
2023-01-20T02:45:21.669Z,7.90
2023-01-20T02:47:54.078Z,8.97
2023-01-20T02:50:36.852Z,9.83
2023-01-20T02:53:04.636Z,9.20
2023-01-20T02:55:34.189Z,9.10
2023-01-20T02:58:08.561Z,9.33
2023-01-20T03:00:44.927Z,8.70
2023-01-20T03:03:15.905Z,9.30
2023-01-20T03:06:05.897Z,9.80
2023-01-20T03:08:33.517Z,9.40
2023-01-20T03:11:05.976Z,9.13
2023-01-20T03:13:46.150Z,8.53
2023-01-20T03:16:17.186Z,9.03
2023-01-20T03:18:45.842Z,9.10
2023-01-20T03:21:13.671Z,9.50
2023-01-20T03:23:44.388Z,9.83
2023-01-20T03:26:14.034Z,10.60
2023-01-20T03:28:45.055Z,10.00
2023-01-20T03:31:20.967Z,10.73
2023-01-20T03:33:50.259Z,9.47
2023-01-20T03:36:18.574Z,10.93
2023-01-20T03:38:46.152Z,12.10
2023-01-20T03:41:24.808Z,12.13
2023-01-20T03:43:51.339Z,14.50
2023-01-20T03:46:32.328Z,13.80
2023-01-20T03:49:12.265Z,13.90
2023-01-20T03:51:55.688Z,15.30
2023-01-20T03:54:30.857Z,16.30
2023-01-20T03:57:07.003Z,16.20
2023-01-20T03:59:37.389Z,16.30
2023-01-20T04:02:07.491Z,16.40
2023-01-20T04:04:38.389Z,14.93
2023-01-20T04:07:11.128Z,16.27
2023-01-20T04:09:44.093Z,14.30
2023-01-20T04:12:10.867Z,15.20
2023-01-20T04:14:37.657Z,13.40
2023-01-20T04:17:05.084Z,16.10
2023-01-20T04:19:31.831Z,16.87
2023-01-20T04:21:58.335Z,14.77
2023-01-20T04:24:37.868Z,14.10
2023-01-20T04:27:04.458Z,13.30
2023-01-20T04:29:31.064Z,17.23
2023-01-20T04:32:02.695Z,16.60
2023-01-20T04:34:29.654Z,15.70
2023-01-20T04:36:56.305Z,16.90
2023-01-20T04:39:23.039Z,15.93
2023-01-20T04:41:49.798Z,15.80
2023-01-20T04:44:16.355Z,14.73
2023-01-20T04:46:43.038Z,16.30
2023-01-20T04:49:12.488Z,14.90
2023-01-20T04:51:39.168Z,15.30
2023-01-20T04:54:05.832Z,15.10
2023-01-20T04:56:32.705Z,15.80
2023-01-20T04:58:59.445Z,15.73
2023-01-20T05:01:26.172Z,15.80
2023-01-20T05:03:52.781Z,13.33
2023-01-20T05:06:19.381Z,16.40
2023-01-20T05:08:46.072Z,16.33
2023-01-20T05:11:12.719Z,15.57
2023-01-20T05:13:40.255Z,16.77
2023-01-20T05:16:08.545Z,16.27
2023-01-20T05:18:35.245Z,18.10
2023-01-20T05:21:03.863Z,18.90
2023-01-20T05:23:30.771Z,16.17
2023-01-20T05:25:57.416Z,17.40
2023-01-20T05:28:24.174Z,18.83
2023-01-20T05:30:51.786Z,18.00
2023-01-20T05:33:18.529Z,18.63
2023-01-20T05:35:45.107Z,18.50
2023-01-20T05:38:11.709Z,17.43
2023-01-20T05:40:38.539Z,16.13
2023-01-20T05:43:05.140Z,17.33
2023-01-20T05:45:32.443Z,18.20
2023-01-20T05:48:00.003Z,18.37
2023-01-20T05:50:28.059Z,18.00
2023-01-20T05:52:55.048Z,17.30
2023-01-20T05:55:21.911Z,20.10
2023-01-20T05:57:48.510Z,18.07
2023-01-20T06:00:15.457Z,17.33
2023-01-20T06:02:42.154Z,17.00
2023-01-20T06:05:11.600Z,19.00
2023-01-20T06:07:38.278Z,17.97
2023-01-20T06:10:05.323Z,18.10
2023-01-20T06:12:34.594Z,18.07
2023-01-20T06:15:01.369Z,18.07
2023-01-20T06:17:27.966Z,20.00
2023-01-20T06:19:54.564Z,20.47
2023-01-20T06:22:21.509Z,16.40
2023-01-20T06:24:48.101Z,20.10
2023-01-20T06:27:14.723Z,22.30
2023-01-20T06:29:41.296Z,21.40
2023-01-20T06:32:07.938Z,18.80
2023-01-20T06:34:34.548Z,19.37
2023-01-20T06:37:02.197Z,19.53
2023-01-20T06:39:31.595Z,18.10
2023-01-20T06:41:59.487Z,18.87
2023-01-20T06:44:28.733Z,17.60
2023-01-20T06:46:59.389Z,18.10
2023-01-20T06:49:26.515Z,18.17
2023-01-20T06:51:53.211Z,17.00
2023-01-20T06:54:19.887Z,17.97
2023-01-20T06:56:46.465Z,19.07
2023-01-20T06:59:13.316Z,17.07
2023-01-20T07:01:40.738Z,20.27
2023-01-20T07:04:08.260Z,17.33
2023-01-20T07:06:39.637Z,18.57
2023-01-20T07:09:09.393Z,19.00
2023-01-20T07:11:39.513Z,17.10
2023-01-20T07:14:06.895Z,20.00
2023-01-20T07:16:34.456Z,21.67
2023-01-20T07:19:01.235Z,21.87
2023-01-20T07:21:28.210Z,21.00
2023-01-20T07:23:55.042Z,23.13
2023-01-20T07:26:24.307Z,21.10
2023-01-20T07:28:51.963Z,21.07
2023-01-20T07:31:29.071Z,19.20
2023-01-20T07:33:56.346Z,20.17
2023-01-20T07:36:23.301Z,20.20
2023-01-20T07:38:50.581Z,22.10
2023-01-20T07:41:19.771Z,21.77
2023-01-20T07:43:49.589Z,19.33
2023-01-20T07:46:16.701Z,20.80
2023-01-20T07:48:43.494Z,21.60
2023-01-20T07:51:13.199Z,21.00
2023-01-20T07:53:42.197Z,22.40
2023-01-20T07:56:17.103Z,20.47
2023-01-20T07:58:47.512Z,22.77
2023-01-20T08:01:25.786Z,21.50
2023-01-20T08:03:52.945Z,21.27
2023-01-20T08:06:22.316Z,20.13
2023-01-20T08:08:49.222Z,20.77
2023-01-20T08:11:17.709Z,20.03
2023-01-20T08:13:44.408Z,20.63
2023-01-20T08:16:13.876Z,21.17
2023-01-20T08:18:40.943Z,20.07
2023-01-20T08:21:16.094Z,21.30
2023-01-20T08:23:42.703Z,21.60
2023-01-20T08:26:09.790Z,19.87
2023-01-20T08:28:36.800Z,19.50
2023-01-20T08:31:10.025Z,20.30
2023-01-20T08:33:37.495Z,20.13
2023-01-20T08:36:06.657Z,20.73
2023-01-20T08:38:33.966Z,21.07
2023-01-20T08:41:00.582Z,18.87
2023-01-20T08:43:27.436Z,19.13
2023-01-20T08:46:07.053Z,18.87
2023-01-20T08:48:34.889Z,18.80
2023-01-20T08:51:24.649Z,18.90
2023-01-20T08:53:51.967Z,20.80
2023-01-20T08:56:19.413Z,17.60
2023-01-20T08:58:46.608Z,17.40
2023-01-20T09:01:17.584Z,17.83
2023-01-20T09:03:58.956Z,16.60
2023-01-20T09:06:31.710Z,18.00
2023-01-20T09:08:58.307Z,17.67
2023-01-20T09:11:27.876Z,17.40
2023-01-20T09:13:54.909Z,16.47
2023-01-20T09:16:21.545Z,14.43
2023-01-20T09:18:48.162Z,17.40
2023-01-20T09:21:14.787Z,14.53
2023-01-20T09:23:42.867Z,14.43
2023-01-20T09:26:10.101Z,15.73
2023-01-20T09:28:36.715Z,14.90
2023-01-20T09:31:08.696Z,16.13
2023-01-20T09:33:38.240Z,16.30
2023-01-20T09:36:10.528Z,14.77
2023-01-20T09:38:56.907Z,13.17
2023-01-20T09:41:49.193Z,14.07
2023-01-20T09:44:21.733Z,25.67
2023-01-20T09:47:22.575Z,13.90
2023-01-20T09:50:35.882Z,11.07
2023-01-20T09:53:05.262Z,12.10
2023-01-20T09:55:40.966Z,13.00
2023-01-20T09:58:16.885Z,14.03
2023-01-20T10:00:49.630Z,13.60
2023-01-20T10:03:25.138Z,11.93
2023-01-20T10:05:54.667Z,11.77
2023-01-20T10:08:28.911Z,9.90
2023-01-20T10:11:02.912Z,11.77
2023-01-20T10:13:33.705Z,11.70
2023-01-20T10:16:06.551Z,11.40
2023-01-20T10:18:56.688Z,9.80
2023-01-20T10:21:36.706Z,9.60
2023-01-20T10:24:30.965Z,10.93
2023-01-20T10:27:04.959Z,9.57
2023-01-20T10:29:38.726Z,10.50
2023-01-20T10:32:24.764Z,9.00
2023-01-20T10:34:56.578Z,10.73
2023-01-20T10:37:23.993Z,9.40
2023-01-20T10:40:01.691Z,10.10
2023-01-20T10:42:28.849Z,11.40
2023-01-20T10:44:56.012Z,10.80
2023-01-20T10:47:41.234Z,8.73
2023-01-20T10:50:16.654Z,9.73
2023-01-20T10:53:04.191Z,10.30
2023-01-20T10:55:42.862Z,10.17
2023-01-20T10:58:21.211Z,8.87
2023-01-20T11:00:49.846Z,9.10
2023-01-20T11:03:20.262Z,9.83
2023-01-20T11:05:48.515Z,10.20
2023-01-20T11:08:28.151Z,9.83
2023-01-20T11:10:59.263Z,10.43
2023-01-20T11:13:25.984Z,8.40
2023-01-20T11:16:02.662Z,9.30
2023-01-20T11:18:31.258Z,8.33
2023-01-20T11:21:03.390Z,8.73
2023-01-20T11:23:36.605Z,7.83
2023-01-20T11:26:10.047Z,7.90
2023-01-20T11:29:06.002Z,8.90
2023-01-20T11:31:39.703Z,6.47
2023-01-20T11:34:26.672Z,7.50
2023-01-20T11:37:05.471Z,7.20
2023-01-20T11:39:36.841Z,8.20
2023-01-20T11:42:25.063Z,6.33
2023-01-20T11:45:19.764Z,6.70
2023-01-20T11:48:00.603Z,8.43
2023-01-20T11:50:32.119Z,7.30
2023-01-20T11:53:12.432Z,7.73
2023-01-20T11:55:52.117Z,8.83
2023-01-20T11:58:22.337Z,7.67
2023-01-20T12:00:52.353Z,7.63
2023-01-20T12:03:30.004Z,9.37
2023-01-20T12:06:11.851Z,9.37
2023-01-20T12:08:55.354Z,11.50
2023-01-20T12:11:30.408Z,11.20
2023-01-20T12:14:22.912Z,14.20
2023-01-20T12:17:10.913Z,12.57
2023-01-20T12:19:48.468Z,13.20
2023-01-20T12:22:24.208Z,11.40
2023-01-20T12:25:09.232Z,12.30
2023-01-20T12:27:43.819Z,12.20
2023-01-20T12:30:50.191Z,11.43
2023-01-20T12:33:30.197Z,14.10
2023-01-20T12:36:26.910Z,15.13
2023-01-20T12:39:19.088Z,12.07
2023-01-20T12:42:05.372Z,13.47
2023-01-20T12:44:44.427Z,13.90
2023-01-20T12:47:43.112Z,12.87
2023-01-20T12:50:31.246Z,14.70
2023-01-20T12:53:04.075Z,13.80
2023-01-20T12:56:15.950Z,16.07
2023-01-20T12:59:06.328Z,15.90
2023-01-20T13:01:38.748Z,14.30
2023-01-20T13:04:36.009Z,15.03
2023-01-20T13:07:24.701Z,14.33
2023-01-20T13:10:46.360Z,17.40
2023-01-20T13:13:55.905Z,14.30
2023-01-20T13:16:42.678Z,14.63
2023-01-20T13:19:29.550Z,15.23
2023-01-20T13:22:07.743Z,14.57
2023-01-20T13:24:35.281Z,12.43
2023-01-20T13:27:02.728Z,13.40
2023-01-20T13:29:51.090Z,12.30
2023-01-20T13:32:26.841Z,12.77
2023-01-20T13:34:53.810Z,9.00
2023-01-20T13:37:25.515Z,11.67
2023-01-20T13:39:54.504Z,11.17
2023-01-20T13:42:48.906Z,11.20
2023-01-20T13:45:19.622Z,11.10
2023-01-20T13:48:11.159Z,12.03
2023-01-20T13:50:39.572Z,10.80
2023-01-20T13:53:12.301Z,11.77
2023-01-20T13:55:43.909Z,11.27
2023-01-20T13:58:22.697Z,13.13
2023-01-20T14:00:51.582Z,11.60
2023-01-20T14:03:24.134Z,13.60
2023-01-20T14:05:52.946Z,10.97
2023-01-20T14:08:20.938Z,10.80
2023-01-20T14:10:47.831Z,12.53
2023-01-20T14:13:22.925Z,11.60
2023-01-20T14:15:53.130Z,10.63
2023-01-20T14:18:22.946Z,10.60
2023-01-20T14:21:03.482Z,10.70
2023-01-20T14:23:30.458Z,11.00
2023-01-20T14:25:59.522Z,11.37
2023-01-20T14:28:26.168Z,12.37
2023-01-20T14:31:12.800Z,13.17
2023-01-20T14:33:47.772Z,10.33
2023-01-20T14:36:17.244Z,13.23
2023-01-20T14:38:57.351Z,10.93
2023-01-20T14:41:33.868Z,9.67
2023-01-20T14:44:01.985Z,11.20
2023-01-20T14:46:31.755Z,10.00
2023-01-20T14:48:58.875Z,9.53
2023-01-20T14:51:25.967Z,10.00
2023-01-20T14:54:30.163Z,10.90
2023-01-20T14:56:58.586Z,9.57
2023-01-20T14:59:25.950Z,9.70
2023-01-20T15:01:55.457Z,9.27
2023-01-20T15:04:22.424Z,9.07
2023-01-20T15:06:58.009Z,8.43
2023-01-20T15:09:30.971Z,9.37
2023-01-20T15:12:35.520Z,8.90
2023-01-20T15:15:35.553Z,10.90
2023-01-20T15:18:16.895Z,8.90
2023-01-20T15:20:47.017Z,10.60
2023-01-20T15:23:19.943Z,9.83
2023-01-20T15:25:47.794Z,9.87
2023-01-20T15:28:24.840Z,10.57
2023-01-20T15:30:53.204Z,10.13
2023-01-20T15:33:21.664Z,8.60
2023-01-20T15:35:56.946Z,9.30
2023-01-20T15:38:24.107Z,9.40
2023-01-20T15:40:50.765Z,10.03
2023-01-20T15:43:18.926Z,9.70
2023-01-20T15:45:45.995Z,9.87
2023-01-20T15:48:21.754Z,9.53
2023-01-20T15:50:48.913Z,9.60
2023-01-20T15:53:15.849Z,10.20
2023-01-20T15:55:48.913Z,9.53
2023-01-20T15:58:25.189Z,10.13
2023-01-20T16:00:52.503Z,12.13
2023-01-20T16:03:19.230Z,11.63
2023-01-20T16:05:48.610Z,10.20
2023-01-20T16:08:20.962Z,11.23
2023-01-20T16:10:47.613Z,10.83
2023-01-20T16:13:16.801Z,11.40
2023-01-20T16:15:43.613Z,11.57
2023-01-20T16:18:15.831Z,12.80
2023-01-20T16:20:44.758Z,11.57
2023-01-20T16:23:12.753Z,12.13
2023-01-20T16:25:40.370Z,13.80
2023-01-20T16:28:24.350Z,12.80
2023-01-20T16:30:53.985Z,12.90
2023-01-20T16:33:25.986Z,11.87
2023-01-20T16:35:56.408Z,12.47
2023-01-20T16:38:25.269Z,14.20
2023-01-20T16:41:05.756Z,12.13
2023-01-20T16:43:32.339Z,12.00
2023-01-20T16:45:59.040Z,11.63
2023-01-20T16:48:26.053Z,12.37
2023-01-20T16:50:52.972Z,12.53
2023-01-20T16:53:20.196Z,12.70
2023-01-20T16:55:48.073Z,15.00
2023-01-20T16:58:16.452Z,13.87
2023-01-20T17:00:43.089Z,13.53
2023-01-20T17:03:09.726Z,13.60
2023-01-20T17:05:36.536Z,12.33
2023-01-20T17:08:03.692Z,13.80
2023-01-20T17:10:32.473Z,14.00
2023-01-20T17:12:59.464Z,14.00
2023-01-20T17:15:27.151Z,15.47
2023-01-20T17:17:58.037Z,15.33
2023-01-20T17:20:28.267Z,13.40
2023-01-20T17:22:58.015Z,13.77
2023-01-20T17:25:24.808Z,13.13
2023-01-20T17:27:51.448Z,14.33
2023-01-20T17:30:18.462Z,15.60
2023-01-20T17:32:47.522Z,15.90
2023-01-20T17:35:15.265Z,16.10
2023-01-20T17:37:42.416Z,13.67
2023-01-20T17:40:13.549Z,15.90
2023-01-20T17:42:40.303Z,18.23
2023-01-20T17:45:07.451Z,18.40
2023-01-20T17:47:34.035Z,17.03
2023-01-20T17:50:00.706Z,17.20
2023-01-20T17:52:28.415Z,16.73
2023-01-20T17:54:55.030Z,16.43
2023-01-20T17:57:26.807Z,17.77
2023-01-20T17:59:53.947Z,16.00
2023-01-20T18:02:22.380Z,17.20
2023-01-20T18:04:49.155Z,17.53
2023-01-20T18:07:15.889Z,15.73
2023-01-20T18:09:43.108Z,16.60
2023-01-20T18:12:09.991Z,17.57
2023-01-20T18:14:36.633Z,17.20
2023-01-20T18:17:03.280Z,18.27
2023-01-20T18:19:30.412Z,18.43
2023-01-20T18:21:57.111Z,16.47
2023-01-20T18:24:23.844Z,19.57
2023-01-20T18:26:50.563Z,19.37
2023-01-20T18:29:18.399Z,19.30
2023-01-20T18:31:50.627Z,19.70
2023-01-20T18:34:18.379Z,19.47
2023-01-20T18:36:46.266Z,20.10
2023-01-20T18:39:22.476Z,24.87
2023-01-20T18:41:50.220Z,17.57
2023-01-20T18:44:20.487Z,17.47
2023-01-20T18:46:47.199Z,18.50
2023-01-20T18:49:15.554Z,18.50
2023-01-20T18:51:42.921Z,18.63
2023-01-20T18:54:17.532Z,20.10
2023-01-20T18:56:44.987Z,19.83
2023-01-20T18:59:11.964Z,18.10
2023-01-20T19:01:42.127Z,18.60
2023-01-20T19:04:12.096Z,19.60
2023-01-20T19:06:44.271Z,26.90
2023-01-20T19:09:11.844Z,38.30
2023-01-20T19:11:40.000Z,26.37
2023-01-20T19:14:11.056Z,20.50
2023-01-20T19:16:42.188Z,21.43
2023-01-20T19:19:10.877Z,20.80
2023-01-20T19:21:37.944Z,19.57
2023-01-20T19:24:11.899Z,19.73
2023-01-20T19:26:39.249Z,19.47
2023-01-20T19:29:10.558Z,18.70
2023-01-20T19:31:58.587Z,19.13
2023-01-20T19:34:26.776Z,16.73
2023-01-20T19:36:53.519Z,17.53
2023-01-20T19:39:20.438Z,18.07
2023-01-20T19:41:47.122Z,20.03
2023-01-20T19:44:13.982Z,21.67
2023-01-20T19:46:41.026Z,17.67
2023-01-20T19:49:07.835Z,21.27
2023-01-20T19:51:34.708Z,20.07
2023-01-20T19:54:01.630Z,17.43
2023-01-20T19:56:31.183Z,20.27
2023-01-20T19:58:58.217Z,18.70
2023-01-20T20:01:31.141Z,15.47
2023-01-20T20:03:59.221Z,18.10
2023-01-20T20:06:31.938Z,17.87
2023-01-20T20:09:01.231Z,19.30
2023-01-20T20:11:29.111Z,19.03
2023-01-20T20:14:00.421Z,16.80
2023-01-20T20:16:29.003Z,18.90
2023-01-20T20:18:56.463Z,18.37
2023-01-20T20:21:23.836Z,18.77
2023-01-20T20:23:55.805Z,19.73
2023-01-20T20:26:24.341Z,20.17
2023-01-20T20:28:51.224Z,17.33
2023-01-20T20:31:18.390Z,19.03
2023-01-20T20:33:48.531Z,17.43
2023-01-20T20:36:15.723Z,18.80
2023-01-20T20:38:44.652Z,17.57
2023-01-20T20:41:11.310Z,16.33
2023-01-20T20:43:38.603Z,17.27
2023-01-20T20:46:06.889Z,17.73
2023-01-20T20:48:34.080Z,17.70
2023-01-20T20:51:15.689Z,17.40
2023-01-20T20:53:44.789Z,17.00
2023-01-20T20:56:14.125Z,17.03
2023-01-20T20:59:00.055Z,16.90
2023-01-20T21:01:29.372Z,18.23
2023-01-20T21:03:57.858Z,14.67
2023-01-20T21:06:24.939Z,16.60
2023-01-20T21:08:52.083Z,13.47
2023-01-20T21:11:20.314Z,16.53
2023-01-20T21:13:49.380Z,15.37
2023-01-20T21:16:20.882Z,16.03
2023-01-20T21:18:49.641Z,16.60
2023-01-20T21:21:22.192Z,16.27
2023-01-20T21:23:54.179Z,15.60
2023-01-20T21:26:21.417Z,14.97
2023-01-20T21:28:49.409Z,16.17
2023-01-20T21:31:20.752Z,16.67
2023-01-20T21:33:49.363Z,14.50
2023-01-20T21:36:16.113Z,14.13
2023-01-20T21:38:46.619Z,14.93
2023-01-20T21:41:14.735Z,17.00
2023-01-20T21:44:01.999Z,17.43
2023-01-20T21:46:39.873Z,17.63
2023-01-20T21:49:28.609Z,17.10
2023-01-20T21:52:14.949Z,11.73
2023-01-20T21:54:42.078Z,16.17
2023-01-20T21:57:10.118Z,11.90
2023-01-20T21:59:37.061Z,15.47
2023-01-20T22:02:04.157Z,14.47
2023-01-20T22:04:32.073Z,17.57
2023-01-20T22:06:58.835Z,16.33
2023-01-20T22:09:25.486Z,16.00
2023-01-20T22:11:52.176Z,13.27
2023-01-20T22:14:21.221Z,18.00
2023-01-20T22:16:48.109Z,18.90
2023-01-20T22:19:15.008Z,15.67
2023-01-20T22:21:41.704Z,18.10
2023-01-20T22:24:09.654Z,19.43
2023-01-20T22:26:36.378Z,19.50
2023-01-20T22:29:03.120Z,16.93
2023-01-20T22:31:31.318Z,18.33
2023-01-20T22:33:59.235Z,17.53
2023-01-20T22:36:26.388Z,19.23
2023-01-20T22:38:54.030Z,18.60
2023-01-20T22:41:21.567Z,20.83
2023-01-20T22:43:50.713Z,18.70
2023-01-20T22:46:19.524Z,21.60
2023-01-20T22:48:46.952Z,17.90
2023-01-20T22:51:19.413Z,19.73
2023-01-20T22:53:46.523Z,16.90
2023-01-20T22:56:24.963Z,19.97
2023-01-20T22:58:52.041Z,15.67
2023-01-20T23:01:21.759Z,17.17
2023-01-20T23:03:48.871Z,17.53
2023-01-20T23:06:15.551Z,12.23
2023-01-20T23:08:42.229Z,17.40
2023-01-20T23:11:12.147Z,18.23
2023-01-20T23:13:39.030Z,15.00
2023-01-20T23:16:16.622Z,17.70
2023-01-20T23:18:44.595Z,16.60
2023-01-20T23:21:11.657Z,18.57
2023-01-20T23:23:39.006Z,19.60
2023-01-20T23:26:09.942Z,17.50
2023-01-20T23:28:36.801Z,17.23
2023-01-20T23:31:06.686Z,20.20
2023-01-20T23:33:34.068Z,17.00
2023-01-20T23:36:13.040Z,14.50
2023-01-20T23:38:40.410Z,16.43
2023-01-20T23:41:07.251Z,16.37
2023-01-20T23:43:34.178Z,18.60
2023-01-20T23:46:03.331Z,17.03
2023-01-20T23:48:30.596Z,16.47
2023-01-20T23:50:59.851Z,14.80
2023-01-20T23:53:28.561Z,14.63
2023-01-20T23:56:06.565Z,15.87
2023-01-20T23:58:33.775Z,15.57
